sensor_id;sensor_type;location;lat;lon;timestamp;pressure;altitude;pressure_sealevel;temperature;humidity
77017;BME280;65949;53.132;17.930;2023-03-01T00:00:00;102566.58;;;-3.37;71.61
77017;BME280;65949;53.132;17.930;2023-03-01T00:02:27;102565.88;;;-3.37;71.82
77017;BME280;65949;53.132;17.930;2023-03-01T00:04:53;102570.27;;;-3.34;71.47
77017;BME280;65949;53.132;17.930;2023-03-01T00:07:20;102576.31;;;-3.31;71.55
77017;BME280;65949;53.132;17.930;2023-03-01T00:09:46;102577.12;;;-3.28;71.45
77017;BME280;65949;53.132;17.930;2023-03-01T00:12:13;102576.68;;;-3.25;71.42
77017;BME280;65949;53.132;17.930;2023-03-01T00:14:39;102577.82;;;-3.20;71.48
77017;BME280;65949;53.132;17.930;2023-03-01T00:17:06;102574.71;;;-3.15;71.53
77017;BME280;65949;53.132;17.930;2023-03-01T00:19:33;102572.62;;;-3.10;71.41
77017;BME280;65949;53.132;17.930;2023-03-01T00:22:00;102573.16;;;-3.08;71.39
77017;BME280;65949;53.132;17.930;2023-03-01T00:24:26;102577.27;;;-3.08;71.20
77017;BME280;65949;53.132;17.930;2023-03-01T00:26:54;102567.63;;;-3.09;71.26
77017;BME280;65949;53.132;17.930;2023-03-01T00:29:24;102563.48;;;-3.12;71.22
77017;BME280;65949;53.132;17.930;2023-03-01T00:31:51;102553.75;;;-3.19;71.40
77017;BME280;65949;53.132;17.930;2023-03-01T00:34:17;102552.20;;;-3.22;71.62
77017;BME280;65949;53.132;17.930;2023-03-01T00:36:44;102546.62;;;-3.27;71.53
77017;BME280;65949;53.132;17.930;2023-03-01T00:39:13;102544.47;;;-3.33;71.45
77017;BME280;65949;53.132;17.930;2023-03-01T00:41:40;102542.23;;;-3.36;71.79
77017;BME280;65949;53.132;17.930;2023-03-01T00:44:09;102543.41;;;-3.43;71.88
77017;BME280;65949;53.132;17.930;2023-03-01T00:46:36;102542.45;;;-3.48;71.97
77017;BME280;65949;53.132;17.930;2023-03-01T00:49:02;102541.53;;;-3.52;72.20
77017;BME280;65949;53.132;17.930;2023-03-01T00:51:31;102539.11;;;-3.58;72.21
77017;BME280;65949;53.132;17.930;2023-03-01T00:54:00;102541.54;;;-3.58;72.06
77017;BME280;65949;53.132;17.930;2023-03-01T00:56:28;102542.95;;;-3.56;72.18
77017;BME280;65949;53.132;17.930;2023-03-01T00:58:55;102535.61;;;-3.54;72.00
77017;BME280;65949;53.132;17.930;2023-03-01T01:01:24;102533.23;;;-3.50;71.78
77017;BME280;65949;53.132;17.930;2023-03-01T01:03:56;102530.56;;;-3.44;72.08
77017;BME280;65949;53.132;17.930;2023-03-01T01:06:28;102529.65;;;-3.39;72.13
77017;BME280;65949;53.132;17.930;2023-03-01T01:08:56;102526.43;;;-3.34;71.68
77017;BME280;65949;53.132;17.930;2023-03-01T01:11:25;102527.79;;;-3.34;71.83
77017;BME280;65949;53.132;17.930;2023-03-01T01:13:52;102519.55;;;-3.36;71.77
77017;BME280;65949;53.132;17.930;2023-03-01T01:16:20;102519.95;;;-3.36;71.50
77017;BME280;65949;53.132;17.930;2023-03-01T01:18:47;102509.70;;;-3.38;71.63
77017;BME280;65949;53.132;17.930;2023-03-01T01:21:16;102508.92;;;-3.41;71.65
77017;BME280;65949;53.132;17.930;2023-03-01T01:23:44;102501.58;;;-3.45;71.92
77017;BME280;65949;53.132;17.930;2023-03-01T01:26:15;102499.30;;;-3.48;71.68
77017;BME280;65949;53.132;17.930;2023-03-01T01:28:42;102500.63;;;-3.52;71.83
77017;BME280;65949;53.132;17.930;2023-03-01T01:31:09;102494.55;;;-3.55;72.21
77017;BME280;65949;53.132;17.930;2023-03-01T01:33:36;102489.42;;;-3.57;72.01
77017;BME280;65949;53.132;17.930;2023-03-01T01:36:05;102491.45;;;-3.59;71.84
77017;BME280;65949;53.132;17.930;2023-03-01T01:38:33;102490.14;;;-3.64;71.98
77017;BME280;65949;53.132;17.930;2023-03-01T01:41:01;102489.46;;;-3.68;72.00
77017;BME280;65949;53.132;17.930;2023-03-01T01:43:35;102481.10;;;-3.70;72.27
77017;BME280;65949;53.132;17.930;2023-03-01T01:46:26;102479.86;;;-3.72;71.98
77017;BME280;65949;53.132;17.930;2023-03-01T01:49:02;102471.83;;;-3.76;72.52
77017;BME280;65949;53.132;17.930;2023-03-01T01:51:35;102467.77;;;-3.76;72.47
77017;BME280;65949;53.132;17.930;2023-03-01T01:54:11;102465.71;;;-3.74;72.18
77017;BME280;65949;53.132;17.930;2023-03-01T01:56:41;102459.05;;;-3.71;72.26
77017;BME280;65949;53.132;17.930;2023-03-01T01:59:11;102461.20;;;-3.70;72.28
77017;BME280;65949;53.132;17.930;2023-03-01T02:01:38;102460.73;;;-3.70;72.60
77017;BME280;65949;53.132;17.930;2023-03-01T02:04:04;102462.42;;;-3.72;72.40
77017;BME280;65949;53.132;17.930;2023-03-01T02:06:49;102456.61;;;-3.72;72.32
77017;BME280;65949;53.132;17.930;2023-03-01T02:09:20;102454.05;;;-3.67;72.08
77017;BME280;65949;53.132;17.930;2023-03-01T02:11:48;102459.73;;;-3.64;72.13
77017;BME280;65949;53.132;17.930;2023-03-01T02:14:16;102462.52;;;-3.65;72.12
77017;BME280;65949;53.132;17.930;2023-03-01T02:16:43;102459.26;;;-3.67;72.30
77017;BME280;65949;53.132;17.930;2023-03-01T02:19:25;102461.69;;;-3.67;72.08
77017;BME280;65949;53.132;17.930;2023-03-01T02:22:09;102469.82;;;-3.69;71.95
77017;BME280;65949;53.132;17.930;2023-03-01T02:27:17;102470.56;;;-3.77;72.42
77017;BME280;65949;53.132;17.930;2023-03-01T02:29:51;102468.31;;;-3.81;72.43
77017;BME280;65949;53.132;17.930;2023-03-01T02:32:18;102464.73;;;-3.83;72.48
77017;BME280;65949;53.132;17.930;2023-03-01T02:34:54;102462.05;;;-3.85;72.50
77017;BME280;65949;53.132;17.930;2023-03-01T02:37:21;102456.18;;;-3.89;72.67
77017;BME280;65949;53.132;17.930;2023-03-01T02:39:56;102454.63;;;-3.90;72.50
77017;BME280;65949;53.132;17.930;2023-03-01T02:42:32;102451.84;;;-3.92;72.73
77017;BME280;65949;53.132;17.930;2023-03-01T02:45:00;102449.94;;;-3.93;72.60
77017;BME280;65949;53.132;17.930;2023-03-01T02:47:27;102447.30;;;-3.95;72.65
77017;BME280;65949;53.132;17.930;2023-03-01T02:49:53;102446.05;;;-3.94;72.70
77017;BME280;65949;53.132;17.930;2023-03-01T02:57:23;102435.56;;;-3.81;72.41
77017;BME280;65949;53.132;17.930;2023-03-01T02:59:52;102435.93;;;-3.75;72.54
77017;BME280;65949;53.132;17.930;2023-03-01T03:02:29;102441.34;;;-3.70;72.36
77017;BME280;65949;53.132;17.930;2023-03-01T03:05:10;102435.67;;;-3.65;72.53
77017;BME280;65949;53.132;17.930;2023-03-01T03:07:40;102430.46;;;-3.61;72.24
77017;BME280;65949;53.132;17.930;2023-03-01T03:10:14;102435.33;;;-3.62;72.44
77017;BME280;65949;53.132;17.930;2023-03-01T03:12:41;102433.98;;;-3.65;72.02
77017;BME280;65949;53.132;17.930;2023-03-01T03:15:10;102433.85;;;-3.66;72.57
77017;BME280;65949;53.132;17.930;2023-03-01T03:17:40;102434.92;;;-3.66;72.18
77017;BME280;65949;53.132;17.930;2023-03-01T03:20:10;102434.13;;;-3.67;72.80
77017;BME280;65949;53.132;17.930;2023-03-01T03:22:39;102431.84;;;-3.68;72.63
77017;BME280;65949;53.132;17.930;2023-03-01T03:25:07;102430.11;;;-3.70;72.56
77017;BME280;65949;53.132;17.930;2023-03-01T03:27:37;102425.63;;;-3.71;72.44
77017;BME280;65949;53.132;17.930;2023-03-01T03:30:06;102425.09;;;-3.73;72.52
77017;BME280;65949;53.132;17.930;2023-03-01T03:32:36;102416.73;;;-3.75;72.86
77017;BME280;65949;53.132;17.930;2023-03-01T03:35:04;102412.81;;;-3.77;72.61
77017;BME280;65949;53.132;17.930;2023-03-01T03:37:40;102406.82;;;-3.78;72.51
77017;BME280;65949;53.132;17.930;2023-03-01T03:40:26;102404.18;;;-3.81;72.58
77017;BME280;65949;53.132;17.930;2023-03-01T03:42:53;102399.59;;;-3.83;72.89
77017;BME280;65949;53.132;17.930;2023-03-01T03:45:21;102393.27;;;-3.83;73.29
77017;BME280;65949;53.132;17.930;2023-03-01T03:47:48;102391.16;;;-3.82;73.01
77017;BME280;65949;53.132;17.930;2023-03-01T03:50:16;102392.14;;;-3.77;73.29
77017;BME280;65949;53.132;17.930;2023-03-01T03:52:43;102390.94;;;-3.71;73.09
77017;BME280;65949;53.132;17.930;2023-03-01T03:55:11;102388.19;;;-3.63;73.11
77017;BME280;65949;53.132;17.930;2023-03-01T03:57:40;102386.09;;;-3.56;73.08
77017;BME280;65949;53.132;17.930;2023-03-01T04:00:10;102385.95;;;-3.48;73.10
77017;BME280;65949;53.132;17.930;2023-03-01T04:02:42;102391.67;;;-3.41;72.89
77017;BME280;65949;53.132;17.930;2023-03-01T04:05:11;102394.19;;;-3.36;73.01
77017;BME280;65949;53.132;17.930;2023-03-01T04:07:38;102391.00;;;-3.30;72.89
77017;BME280;65949;53.132;17.930;2023-03-01T04:10:10;102396.64;;;-3.26;72.60
77017;BME280;65949;53.132;17.930;2023-03-01T04:12:37;102399.30;;;-3.23;72.41
77017;BME280;65949;53.132;17.930;2023-03-01T04:15:06;102399.73;;;-3.23;72.80
77017;BME280;65949;53.132;17.930;2023-03-01T04:17:44;102399.27;;;-3.27;72.40
77017;BME280;65949;53.132;17.930;2023-03-01T04:20:13;102398.81;;;-3.30;72.72
77017;BME280;65949;53.132;17.930;2023-03-01T04:22:40;102401.02;;;-3.32;72.40
77017;BME280;65949;53.132;17.930;2023-03-01T04:25:07;102403.61;;;-3.39;72.62
77017;BME280;65949;53.132;17.930;2023-03-01T04:27:35;102408.70;;;-3.50;72.51
77017;BME280;65949;53.132;17.930;2023-03-01T04:30:03;102409.25;;;-3.59;72.58
77017;BME280;65949;53.132;17.930;2023-03-01T04:32:30;102413.92;;;-3.67;72.80
77017;BME280;65949;53.132;17.930;2023-03-01T04:34:56;102408.30;;;-3.78;72.92
77017;BME280;65949;53.132;17.930;2023-03-01T04:37:23;102399.98;;;-3.86;73.30
77017;BME280;65949;53.132;17.930;2023-03-01T04:39:53;102385.49;;;-3.90;72.96
77017;BME280;65949;53.132;17.930;2023-03-01T04:42:20;102383.71;;;-3.89;73.30
77017;BME280;65949;53.132;17.930;2023-03-01T04:44:47;102383.73;;;-3.89;72.89
77017;BME280;65949;53.132;17.930;2023-03-01T04:47:13;102382.64;;;-3.93;73.16
77017;BME280;65949;53.132;17.930;2023-03-01T04:49:40;102385.37;;;-3.93;73.52
77017;BME280;65949;53.132;17.930;2023-03-01T04:52:06;102387.62;;;-3.89;73.15
77017;BME280;65949;53.132;17.930;2023-03-01T04:54:34;102386.45;;;-3.83;73.26
77017;BME280;65949;53.132;17.930;2023-03-01T04:57:02;102388.73;;;-3.79;73.09
77017;BME280;65949;53.132;17.930;2023-03-01T04:59:29;102379.73;;;-3.77;73.14
77017;BME280;65949;53.132;17.930;2023-03-01T05:01:56;102377.33;;;-3.77;73.19
77017;BME280;65949;53.132;17.930;2023-03-01T05:04:25;102373.62;;;-3.82;73.22
77017;BME280;65949;53.132;17.930;2023-03-01T05:06:52;102373.33;;;-3.84;73.28
77017;BME280;65949;53.132;17.930;2023-03-01T05:09:20;102377.17;;;-3.86;73.27
77017;BME280;65949;53.132;17.930;2023-03-01T05:11:46;102379.75;;;-3.88;73.31
77017;BME280;65949;53.132;17.930;2023-03-01T05:14:13;102386.08;;;-3.91;73.50
77017;BME280;65949;53.132;17.930;2023-03-01T05:16:39;102387.66;;;-3.96;73.45
77017;BME280;65949;53.132;17.930;2023-03-01T05:19:06;102389.31;;;-4.02;73.73
77017;BME280;65949;53.132;17.930;2023-03-01T05:21:38;102388.09;;;-4.04;73.64
77017;BME280;65949;53.132;17.930;2023-03-01T05:24:28;102389.36;;;-4.03;73.65
77017;BME280;65949;53.132;17.930;2023-03-01T05:26:55;102389.95;;;-4.04;73.40
77017;BME280;65949;53.132;17.930;2023-03-01T05:29:24;102387.45;;;-4.07;73.78
77017;BME280;65949;53.132;17.930;2023-03-01T05:31:58;102382.25;;;-4.07;73.71
77017;BME280;65949;53.132;17.930;2023-03-01T05:34:32;102378.48;;;-4.05;73.63
77017;BME280;65949;53.132;17.930;2023-03-01T05:36:59;102382.09;;;-4.01;73.56
77017;BME280;65949;53.132;17.930;2023-03-01T05:39:27;102376.66;;;-3.96;73.66
77017;BME280;65949;53.132;17.930;2023-03-01T05:41:56;102377.50;;;-3.92;73.75
77017;BME280;65949;53.132;17.930;2023-03-01T05:44:23;102374.52;;;-3.91;73.65
77017;BME280;65949;53.132;17.930;2023-03-01T05:46:51;102378.94;;;-3.86;73.62
77017;BME280;65949;53.132;17.930;2023-03-01T05:49:18;102376.66;;;-3.88;73.61
77017;BME280;65949;53.132;17.930;2023-03-01T05:51:50;102378.98;;;-3.89;73.75
77017;BME280;65949;53.132;17.930;2023-03-01T05:54:17;102377.82;;;-3.88;73.61
77017;BME280;65949;53.132;17.930;2023-03-01T05:56:44;102378.30;;;-3.90;73.65
77017;BME280;65949;53.132;17.930;2023-03-01T05:59:11;102381.09;;;-3.92;73.93
77017;BME280;65949;53.132;17.930;2023-03-01T06:01:38;102385.22;;;-3.95;73.72
77017;BME280;65949;53.132;17.930;2023-03-01T06:04:05;102385.48;;;-4.01;73.98
77017;BME280;65949;53.132;17.930;2023-03-01T06:06:36;102387.04;;;-4.06;74.19
77017;BME280;65949;53.132;17.930;2023-03-01T06:09:06;102387.50;;;-4.14;74.31
77017;BME280;65949;53.132;17.930;2023-03-01T06:11:36;102387.01;;;-4.19;74.30
77017;BME280;65949;53.132;17.930;2023-03-01T06:14:03;102388.49;;;-4.20;74.58
77017;BME280;65949;53.132;17.930;2023-03-01T06:16:30;102389.97;;;-4.17;74.71
77017;BME280;65949;53.132;17.930;2023-03-01T06:18:57;102388.59;;;-4.10;74.64
77017;BME280;65949;53.132;17.930;2023-03-01T06:21:23;102389.48;;;-4.02;74.45
77017;BME280;65949;53.132;17.930;2023-03-01T06:23:50;102391.32;;;-3.93;74.40
77017;BME280;65949;53.132;17.930;2023-03-01T06:26:18;102392.48;;;-3.88;74.39
77017;BME280;65949;53.132;17.930;2023-03-01T06:28:45;102399.02;;;-3.85;74.67
77017;BME280;65949;53.132;17.930;2023-03-01T06:31:12;102400.02;;;-3.83;74.61
77017;BME280;65949;53.132;17.930;2023-03-01T06:33:39;102400.80;;;-3.78;74.31
77017;BME280;65949;53.132;17.930;2023-03-01T06:36:06;102401.73;;;-3.70;74.39
77017;BME280;65949;53.132;17.930;2023-03-01T06:38:33;102400.00;;;-3.60;74.37
77017;BME280;65949;53.132;17.930;2023-03-01T06:40:59;102403.56;;;-3.51;74.14
77017;BME280;65949;53.132;17.930;2023-03-01T06:43:27;102402.18;;;-3.45;74.26
77017;BME280;65949;53.132;17.930;2023-03-01T06:45:54;102402.60;;;-3.35;73.99
77017;BME280;65949;53.132;17.930;2023-03-01T06:48:20;102403.51;;;-3.25;74.17
77017;BME280;65949;53.132;17.930;2023-03-01T06:50:47;102406.29;;;-3.13;74.02
77017;BME280;65949;53.132;17.930;2023-03-01T06:53:14;102409.58;;;-3.08;74.32
77017;BME280;65949;53.132;17.930;2023-03-01T06:55:41;102408.88;;;-3.05;74.40
77017;BME280;65949;53.132;17.930;2023-03-01T06:58:08;102406.48;;;-2.97;74.28
77017;BME280;65949;53.132;17.930;2023-03-01T07:00:35;102398.80;;;-2.84;74.11
77017;BME280;65949;53.132;17.930;2023-03-01T07:03:02;102393.65;;;-2.73;74.05
77017;BME280;65949;53.132;17.930;2023-03-01T07:05:29;102384.66;;;-2.59;73.99
77017;BME280;65949;53.132;17.930;2023-03-01T07:07:56;102385.80;;;-2.46;73.81
77017;BME280;65949;53.132;17.930;2023-03-01T07:10:23;102389.91;;;-2.34;73.57
77017;BME280;65949;53.132;17.930;2023-03-01T07:12:50;102384.65;;;-2.22;73.78
77017;BME280;65949;53.132;17.930;2023-03-01T07:15:16;102377.95;;;-2.12;73.67
77017;BME280;65949;53.132;17.930;2023-03-01T07:17:43;102375.79;;;-2.00;73.52
77017;BME280;65949;53.132;17.930;2023-03-01T07:20:11;102380.44;;;-1.89;73.36
77017;BME280;65949;53.132;17.930;2023-03-01T07:22:40;102381.25;;;-1.77;73.23
77017;BME280;65949;53.132;17.930;2023-03-01T07:25:08;102370.37;;;-1.67;73.17
77017;BME280;65949;53.132;17.930;2023-03-01T07:27:36;102356.13;;;-1.52;73.03
77017;BME280;65949;53.132;17.930;2023-03-01T07:30:03;102357.65;;;-1.37;72.75
77017;BME280;65949;53.132;17.930;2023-03-01T07:32:30;102359.13;;;-1.21;72.43
77017;BME280;65949;53.132;17.930;2023-03-01T07:34:56;102362.16;;;-1.05;72.06
77017;BME280;65949;53.132;17.930;2023-03-01T07:37:23;102362.05;;;-0.87;71.74
77017;BME280;65949;53.132;17.930;2023-03-01T07:39:50;102364.94;;;-0.70;71.11
77017;BME280;65949;53.132;17.930;2023-03-01T07:42:16;102360.73;;;-0.58;70.99
77017;BME280;65949;53.132;17.930;2023-03-01T07:44:43;102361.16;;;-0.45;71.12
77017;BME280;65949;53.132;17.930;2023-03-01T07:47:09;102361.27;;;-0.34;71.05
77017;BME280;65949;53.132;17.930;2023-03-01T07:49:36;102356.71;;;-0.22;70.83
77017;BME280;65949;53.132;17.930;2023-03-01T07:52:03;102352.20;;;-0.12;70.46
77017;BME280;65949;53.132;17.930;2023-03-01T07:54:29;102352.70;;;-0.03;70.28
77017;BME280;65949;53.132;17.930;2023-03-01T07:56:56;102348.43;;;0.09;70.17
77017;BME280;65949;53.132;17.930;2023-03-01T07:59:24;102352.02;;;0.19;69.66
77017;BME280;65949;53.132;17.930;2023-03-01T08:01:56;102348.40;;;0.27;69.70
77017;BME280;65949;53.132;17.930;2023-03-01T08:04:23;102344.27;;;0.34;69.39
77017;BME280;65949;53.132;17.930;2023-03-01T08:06:51;102344.84;;;0.41;69.39
77017;BME280;65949;53.132;17.930;2023-03-01T08:09:18;102343.27;;;0.50;69.34
77017;BME280;65949;53.132;17.930;2023-03-01T08:11:45;102336.80;;;0.60;69.50
77017;BME280;65949;53.132;17.930;2023-03-01T08:14:12;102335.05;;;0.73;69.39
77017;BME280;65949;53.132;17.930;2023-03-01T08:16:38;102334.89;;;0.83;69.11
77017;BME280;65949;53.132;17.930;2023-03-01T08:19:07;102340.71;;;0.88;68.90
77017;BME280;65949;53.132;17.930;2023-03-01T08:21:34;102342.55;;;0.94;69.18
77017;BME280;65949;53.132;17.930;2023-03-01T08:24:05;102346.80;;;1.03;69.32
77017;BME280;65949;53.132;17.930;2023-03-01T08:26:33;102350.04;;;1.12;69.40
77017;BME280;65949;53.132;17.930;2023-03-01T08:29:00;102349.09;;;1.14;68.89
77017;BME280;65949;53.132;17.930;2023-03-01T08:31:38;102346.64;;;1.17;69.21
77017;BME280;65949;53.132;17.930;2023-03-01T08:34:08;102349.63;;;1.18;68.91
77017;BME280;65949;53.132;17.930;2023-03-01T08:36:38;102356.13;;;1.16;69.08
77017;BME280;65949;53.132;17.930;2023-03-01T08:39:07;102359.93;;;1.21;69.41
77017;BME280;65949;53.132;17.930;2023-03-01T08:41:34;102358.52;;;1.28;69.20
77017;BME280;65949;53.132;17.930;2023-03-01T08:44:01;102354.38;;;1.34;69.27
77017;BME280;65949;53.132;17.930;2023-03-01T08:46:32;102348.48;;;1.41;69.49
77017;BME280;65949;53.132;17.930;2023-03-01T08:49:00;102347.40;;;1.50;69.34
77017;BME280;65949;53.132;17.930;2023-03-01T08:51:27;102343.91;;;1.61;69.32
77017;BME280;65949;53.132;17.930;2023-03-01T08:53:55;102348.84;;;1.70;69.16
77017;BME280;65949;53.132;17.930;2023-03-01T08:56:22;102346.76;;;1.73;69.14
77017;BME280;65949;53.132;17.930;2023-03-01T08:58:49;102346.35;;;1.81;69.37
77017;BME280;65949;53.132;17.930;2023-03-01T09:01:18;102344.56;;;1.90;69.23
77017;BME280;65949;53.132;17.930;2023-03-01T09:03:45;102345.98;;;1.99;69.19
77017;BME280;65949;53.132;17.930;2023-03-01T09:06:13;102348.79;;;2.09;69.37
77017;BME280;65949;53.132;17.930;2023-03-01T09:08:43;102350.02;;;2.17;69.07
77017;BME280;65949;53.132;17.930;2023-03-01T09:11:12;102346.82;;;2.28;69.20
77017;BME280;65949;53.132;17.930;2023-03-01T09:13:39;102342.55;;;2.39;69.00
77017;BME280;65949;53.132;17.930;2023-03-01T09:16:07;102344.42;;;2.49;68.94
77017;BME280;65949;53.132;17.930;2023-03-01T09:18:34;102348.23;;;2.58;69.01
77017;BME280;65949;53.132;17.930;2023-03-01T09:21:13;102351.72;;;2.67;68.73
77017;BME280;65949;53.132;17.930;2023-03-01T09:23:42;102349.90;;;2.75;68.87
77017;BME280;65949;53.132;17.930;2023-03-01T09:26:19;102348.46;;;2.83;69.19
77017;BME280;65949;53.132;17.930;2023-03-01T09:28:53;102351.26;;;2.94;68.60
77017;BME280;65949;53.132;17.930;2023-03-01T09:31:22;102342.56;;;3.02;68.80
77017;BME280;65949;53.132;17.930;2023-03-01T09:33:51;102340.92;;;3.11;68.56
77017;BME280;65949;53.132;17.930;2023-03-01T09:36:20;102342.80;;;3.18;68.33
77017;BME280;65949;53.132;17.930;2023-03-01T09:38:48;102345.69;;;3.28;68.35
77017;BME280;65949;53.132;17.930;2023-03-01T09:43:56;102341.39;;;3.39;68.61
77017;BME280;65949;53.132;17.930;2023-03-01T09:46:26;102338.62;;;3.41;68.79
77017;BME280;65949;53.132;17.930;2023-03-01T09:49:00;102334.80;;;3.48;68.71
77017;BME280;65949;53.132;17.930;2023-03-01T09:55:50;102330.83;;;3.73;68.71
77017;BME280;65949;53.132;17.930;2023-03-01T10:00:56;102323.80;;;3.88;68.46
77017;BME280;65949;53.132;17.930;2023-03-01T10:03:33;102324.64;;;3.96;68.47
77017;BME280;65949;53.132;17.930;2023-03-01T10:06:12;102321.70;;;4.07;68.13
77017;BME280;65949;53.132;17.930;2023-03-01T10:09:09;102320.64;;;4.18;68.24
77017;BME280;65949;53.132;17.930;2023-03-01T10:11:39;102316.45;;;4.28;67.67
77017;BME280;65949;53.132;17.930;2023-03-01T10:19:43;102310.11;;;4.50;67.75
77017;BME280;65949;53.132;17.930;2023-03-01T10:22:30;102303.54;;;4.58;67.55
77017;BME280;65949;53.132;17.930;2023-03-01T10:24:59;102301.32;;;4.62;67.41
77017;BME280;65949;53.132;17.930;2023-03-01T10:28:10;102297.33;;;4.69;67.23
77017;BME280;65949;53.132;17.930;2023-03-01T10:30:39;102290.73;;;4.74;67.05
77017;BME280;65949;53.132;17.930;2023-03-01T10:35:42;102282.31;;;4.88;66.91
77017;BME280;65949;53.132;17.930;2023-03-01T10:38:14;102279.13;;;4.93;66.67
77017;BME280;65949;53.132;17.930;2023-03-01T10:43:49;102275.89;;;5.05;66.73
77017;BME280;65949;53.132;17.930;2023-03-01T10:46:34;102275.77;;;5.10;66.44
77017;BME280;65949;53.132;17.930;2023-03-01T10:49:18;102268.75;;;5.17;66.47
77017;BME280;65949;53.132;17.930;2023-03-01T10:52:17;102274.14;;;5.27;66.36
77017;BME280;65949;53.132;17.930;2023-03-01T10:54:53;102265.88;;;5.34;66.01
77017;BME280;65949;53.132;17.930;2023-03-01T10:57:32;102263.23;;;5.43;66.07
77017;BME280;65949;53.132;17.930;2023-03-01T11:00:18;102257.40;;;5.52;65.70
77017;BME280;65949;53.132;17.930;2023-03-01T11:03:12;102250.63;;;5.59;65.61
77017;BME280;65949;53.132;17.930;2023-03-01T11:06:02;102244.57;;;5.64;65.52
77017;BME280;65949;53.132;17.930;2023-03-01T11:08:44;102239.52;;;5.71;65.50
77017;BME280;65949;53.132;17.930;2023-03-01T11:11:29;102240.04;;;5.81;65.01
77017;BME280;65949;53.132;17.930;2023-03-01T11:13:58;102240.39;;;5.83;64.94
77017;BME280;65949;53.132;17.930;2023-03-01T11:16:37;102237.20;;;5.91;65.04
77017;BME280;65949;53.132;17.930;2023-03-01T11:21:40;102237.45;;;6.06;64.88
77017;BME280;65949;53.132;17.930;2023-03-01T11:24:11;102235.66;;;6.13;64.71
77017;BME280;65949;53.132;17.930;2023-03-01T11:26:41;102231.55;;;6.17;64.11
77017;BME280;65949;53.132;17.930;2023-03-01T11:29:26;102225.95;;;6.23;64.56
77017;BME280;65949;53.132;17.930;2023-03-01T11:31:57;102222.17;;;6.32;63.68
77017;BME280;65949;53.132;17.930;2023-03-01T11:34:43;102223.31;;;6.39;63.56
77017;BME280;65949;53.132;17.930;2023-03-01T11:37:22;102223.44;;;6.45;63.24
77017;BME280;65949;53.132;17.930;2023-03-01T11:40:02;102228.45;;;6.54;63.23
77017;BME280;65949;53.132;17.930;2023-03-01T11:42:56;102219.63;;;6.62;63.11
77017;BME280;65949;53.132;17.930;2023-03-01T11:45:34;102222.91;;;6.70;62.26
77017;BME280;65949;53.132;17.930;2023-03-01T11:48:22;102218.33;;;6.74;61.55
77017;BME280;65949;53.132;17.930;2023-03-01T11:50:52;102217.87;;;6.77;61.72
77017;BME280;65949;53.132;17.930;2023-03-01T11:56:05;102216.40;;;6.85;61.02
77017;BME280;65949;53.132;17.930;2023-03-01T12:01:56;102216.76;;;6.97;61.13
77017;BME280;65949;53.132;17.930;2023-03-01T12:04:51;102214.23;;;7.07;61.21
77017;BME280;65949;53.132;17.930;2023-03-01T12:07:46;102215.15;;;7.14;59.48
77017;BME280;65949;53.132;17.930;2023-03-01T12:10:23;102217.80;;;7.08;58.40
77017;BME280;65949;53.132;17.930;2023-03-01T12:13:14;102228.89;;;7.05;58.38
77017;BME280;65949;53.132;17.930;2023-03-01T12:21:41;102223.27;;;7.10;60.08
77017;BME280;65949;53.132;17.930;2023-03-01T12:24:50;102222.89;;;7.17;60.03
77017;BME280;65949;53.132;17.930;2023-03-01T12:32:55;102217.93;;;7.27;59.98
77017;BME280;65949;53.132;17.930;2023-03-01T12:39:09;102213.64;;;7.31;60.37
77017;BME280;65949;53.132;17.930;2023-03-01T12:44:09;102206.17;;;7.48;60.11
77017;BME280;65949;53.132;17.930;2023-03-01T12:49:14;102195.46;;;7.64;60.17
77017;BME280;65949;53.132;17.930;2023-03-01T12:51:59;102192.52;;;7.70;60.34
77017;BME280;65949;53.132;17.930;2023-03-01T12:54:33;102189.56;;;7.74;60.42
77017;BME280;65949;53.132;17.930;2023-03-01T12:57:29;102185.34;;;7.75;60.13
77017;BME280;65949;53.132;17.930;2023-03-01T13:08:02;102184.55;;;7.91;59.03
77017;BME280;65949;53.132;17.930;2023-03-01T13:10:43;102183.07;;;7.98;59.59
77017;BME280;65949;53.132;17.930;2023-03-01T13:13:26;102178.23;;;8.01;58.53
77017;BME280;65949;53.132;17.930;2023-03-01T13:15:54;102182.20;;;7.98;58.71
77017;BME280;65949;53.132;17.930;2023-03-01T13:20:54;102175.70;;;8.12;58.30
77017;BME280;65949;53.132;17.930;2023-03-01T13:33:44;102166.50;;;8.04;57.39
77017;BME280;65949;53.132;17.930;2023-03-01T13:36:44;102168.52;;;8.12;56.17
77017;BME280;65949;53.132;17.930;2023-03-01T13:39:29;102166.79;;;8.16;56.78
77017;BME280;65949;53.132;17.930;2023-03-01T13:41:59;102165.69;;;8.22;56.44
77017;BME280;65949;53.132;17.930;2023-03-01T13:44:31;102166.30;;;8.24;56.16
77017;BME280;65949;53.132;17.930;2023-03-01T13:47:20;102166.06;;;8.26;56.64
77017;BME280;65949;53.132;17.930;2023-03-01T13:52:43;102155.23;;;8.34;55.95
77017;BME280;65949;53.132;17.930;2023-03-01T13:57:44;102157.63;;;8.29;55.37
77017;BME280;65949;53.132;17.930;2023-03-01T14:00:25;102153.17;;;8.19;55.72
77017;BME280;65949;53.132;17.930;2023-03-01T14:05:32;102146.17;;;8.06;56.24
77017;BME280;65949;53.132;17.930;2023-03-01T14:08:00;102145.09;;;8.06;56.03
77017;BME280;65949;53.132;17.930;2023-03-01T14:10:32;102145.93;;;8.05;56.57
77017;BME280;65949;53.132;17.930;2023-03-01T14:13:17;102144.09;;;8.07;56.47
77017;BME280;65949;53.132;17.930;2023-03-01T14:16:01;102145.09;;;8.07;56.56
77017;BME280;65949;53.132;17.930;2023-03-01T14:18:42;102135.15;;;8.09;56.86
77017;BME280;65949;53.132;17.930;2023-03-01T14:21:15;102134.08;;;8.11;56.82
77017;BME280;65949;53.132;17.930;2023-03-01T14:23:42;102132.56;;;8.10;56.50
77017;BME280;65949;53.132;17.930;2023-03-01T14:26:10;102127.34;;;8.09;56.60
77017;BME280;65949;53.132;17.930;2023-03-01T14:28:39;102123.67;;;8.11;56.83